createdAt,value
2022-09-06T00:00:37.940Z,1.47
2022-09-06T00:03:13.929Z,1.70
2022-09-06T00:05:45.808Z,1.50
2022-09-06T00:08:15.660Z,1.40
2022-09-06T00:10:48.202Z,1.90
2022-09-06T00:13:17.086Z,2.00
2022-09-06T00:15:49.104Z,1.93
2022-09-06T00:18:19.815Z,1.90
2022-09-06T00:20:49.897Z,1.63
2022-09-06T00:23:29.887Z,1.50
2022-09-06T00:26:08.824Z,1.30
2022-09-06T00:28:42.359Z,1.20
2022-09-06T00:31:23.033Z,1.33
2022-09-06T00:36:35.052Z,1.30
2022-09-06T00:39:04.147Z,1.43
2022-09-06T00:41:31.790Z,1.53
2022-09-06T00:44:00.925Z,1.50
2022-09-06T00:46:32.686Z,1.50
2022-09-06T00:49:08.254Z,1.53
2022-09-06T00:51:39.717Z,1.87
2022-09-06T00:57:00.977Z,1.73
2022-09-06T00:59:32.938Z,1.40
2022-09-06T01:02:01.488Z,1.60
2022-09-06T01:04:35.475Z,1.53
2022-09-06T01:07:22.539Z,1.57
2022-09-06T01:10:11.951Z,1.40
2022-09-06T01:12:53.501Z,1.47
2022-09-06T01:15:41.797Z,1.57
2022-09-06T01:18:31.654Z,1.80
2022-09-06T01:21:24.260Z,1.50
2022-09-06T01:27:10.926Z,1.60
2022-09-06T01:30:00.160Z,1.67
2022-09-06T01:32:42.102Z,1.40
2022-09-06T01:35:26.819Z,1.40
2022-09-06T01:37:59.100Z,1.67
2022-09-06T01:40:28.544Z,1.53
2022-09-06T01:43:00.334Z,2.03
2022-09-06T01:45:41.243Z,1.40
2022-09-06T01:48:14.980Z,1.70
2022-09-06T01:51:03.616Z,1.90
2022-09-06T01:53:47.817Z,1.60
2022-09-06T01:56:34.808Z,1.73
2022-09-06T01:59:16.300Z,1.57
2022-09-06T02:02:07.295Z,1.60
2022-09-06T02:04:48.613Z,1.40
2022-09-06T02:10:18.578Z,1.80
2022-09-06T02:12:50.138Z,1.70
2022-09-06T02:15:23.498Z,1.63
2022-09-06T02:18:03.867Z,1.80
2022-09-06T02:20:39.124Z,1.73
2022-09-06T02:23:11.849Z,1.83
2022-09-06T02:25:45.944Z,1.77
2022-09-06T02:28:15.580Z,1.70
2022-09-06T02:30:49.205Z,1.90
2022-09-06T02:33:21.474Z,1.90
2022-09-06T02:35:50.313Z,2.00
2022-09-06T02:38:19.283Z,1.80
2022-09-06T02:40:52.130Z,2.10
2022-09-06T02:46:08.626Z,2.00
2022-09-06T02:48:41.586Z,2.23
2022-09-06T02:53:53.970Z,2.13
2022-09-06T02:56:24.440Z,1.70
2022-09-06T02:58:56.939Z,2.00
2022-09-06T03:01:27.513Z,2.13
2022-09-06T03:03:57.806Z,2.33
2022-09-06T03:06:29.802Z,2.23
2022-09-06T03:09:05.019Z,2.30
2022-09-06T03:11:33.462Z,2.67
2022-09-06T03:14:04.198Z,2.10
2022-09-06T03:16:32.665Z,2.00
2022-09-06T03:19:02.619Z,2.40
2022-09-06T03:21:37.611Z,2.47
2022-09-06T03:24:06.234Z,1.97
2022-09-06T03:26:36.741Z,2.00
2022-09-06T03:29:09.509Z,2.13
2022-09-06T03:31:38.113Z,2.00
2022-09-06T03:34:11.217Z,2.20
2022-09-06T03:36:46.286Z,2.40
2022-09-06T03:39:17.451Z,2.40
2022-09-06T03:41:50.196Z,2.37
2022-09-06T03:44:24.646Z,1.97
2022-09-06T03:46:59.353Z,2.10
2022-09-06T03:49:32.982Z,2.27
2022-09-06T03:52:05.807Z,2.50
2022-09-06T03:54:41.280Z,2.70
2022-09-06T03:57:10.248Z,2.60
2022-09-06T03:59:42.206Z,2.83
2022-09-06T04:02:13.900Z,3.30
2022-09-06T04:04:47.396Z,2.90
2022-09-06T04:07:18.928Z,3.03
2022-09-06T04:09:48.583Z,3.70
2022-09-06T04:12:18.470Z,4.10
2022-09-06T04:14:50.036Z,5.03
2022-09-06T04:17:19.944Z,5.20
2022-09-06T04:19:50.942Z,5.83
2022-09-06T04:22:23.003Z,6.27
2022-09-06T04:24:53.719Z,6.30
2022-09-06T04:27:22.695Z,5.73
2022-09-06T04:29:55.341Z,5.83
2022-09-06T04:32:27.853Z,6.03
2022-09-06T04:34:57.610Z,6.13
2022-09-06T04:37:29.924Z,4.87
2022-09-06T04:40:05.262Z,5.43
2022-09-06T04:42:40.308Z,4.90
2022-09-06T04:45:29.726Z,4.73
2022-09-06T04:47:59.770Z,3.80
2022-09-06T04:50:29.925Z,3.50
2022-09-06T04:53:04.296Z,3.20
2022-09-06T04:55:34.135Z,2.87
2022-09-06T04:58:06.043Z,2.90
2022-09-06T05:00:50.104Z,2.97
2022-09-06T05:03:23.503Z,2.83
2022-09-06T05:05:53.524Z,3.17
2022-09-06T05:08:26.733Z,2.30
2022-09-06T05:11:03.826Z,2.87
2022-09-06T05:13:33.300Z,2.63
2022-09-06T05:16:06.611Z,2.57
2022-09-06T05:18:36.969Z,2.40
2022-09-06T05:21:06.641Z,2.30
2022-09-06T05:23:34.894Z,2.40
2022-09-06T05:26:06.367Z,2.27
2022-09-06T05:28:43.215Z,2.20
2022-09-06T05:31:25.233Z,2.20
2022-09-06T05:33:57.562Z,2.20
2022-09-06T05:36:33.540Z,2.07
2022-09-06T05:39:04.388Z,2.30
2022-09-06T05:41:36.284Z,2.50
2022-09-06T05:44:06.255Z,2.60
2022-09-06T05:46:38.776Z,2.67
2022-09-06T05:49:10.694Z,2.73
2022-09-06T05:51:44.515Z,2.60
2022-09-06T05:54:18.085Z,2.60
2022-09-06T05:56:49.827Z,2.97
2022-09-06T05:59:30.968Z,2.90
2022-09-06T06:02:03.351Z,2.83
2022-09-06T06:04:39.612Z,2.97
2022-09-06T06:07:09.352Z,3.27
2022-09-06T06:09:39.016Z,3.00
2022-09-06T06:12:08.294Z,2.90
2022-09-06T06:14:36.612Z,2.90
2022-09-06T06:17:07.316Z,2.50
2022-09-06T06:19:34.711Z,2.87
2022-09-06T06:22:03.247Z,3.40
2022-09-06T06:24:34.867Z,3.17
2022-09-06T06:27:04.011Z,2.73
2022-09-06T06:29:37.775Z,6.13
2022-09-06T06:32:08.998Z,4.10
2022-09-06T06:34:38.735Z,3.67
2022-09-06T06:37:10.523Z,4.07
2022-09-06T06:39:42.568Z,4.17
2022-09-06T06:42:15.303Z,3.60
2022-09-06T06:44:49.044Z,3.80
2022-09-06T06:47:18.767Z,3.80
2022-09-06T06:49:51.937Z,4.30
2022-09-06T06:52:22.227Z,3.57
2022-09-06T06:54:54.146Z,3.70
2022-09-06T06:57:25.832Z,4.40
2022-09-06T06:59:58.816Z,3.77
2022-09-06T07:02:31.267Z,3.83
2022-09-06T07:07:55.387Z,3.37
2022-09-06T07:13:03.882Z,3.40
2022-09-06T07:15:34.582Z,3.37
2022-09-06T07:18:11.797Z,3.50
2022-09-06T07:26:29.120Z,3.10
2022-09-06T07:29:00.999Z,2.97
2022-09-06T07:34:26.184Z,3.43
2022-09-06T07:37:00.676Z,3.30
2022-09-06T07:39:33.115Z,3.10
2022-09-06T07:42:04.689Z,3.27
2022-09-06T07:44:35.903Z,3.23
2022-09-06T07:53:14.838Z,3.20
2022-09-06T07:55:49.826Z,3.13
2022-09-06T07:58:20.385Z,2.90
2022-09-06T08:00:51.749Z,2.73
2022-09-06T08:03:23.006Z,3.23
2022-09-06T08:08:59.839Z,3.03
2022-09-06T08:14:22.454Z,3.00
2022-09-06T08:16:53.078Z,2.80
2022-09-06T08:19:21.744Z,2.33
2022-09-06T08:21:52.688Z,2.63
2022-09-06T08:24:24.822Z,2.40
2022-09-06T08:26:55.160Z,2.60
2022-09-06T08:29:23.222Z,2.07
2022-09-06T08:31:52.449Z,2.37
2022-09-06T08:34:50.237Z,2.07
2022-09-06T08:37:31.103Z,2.10
2022-09-06T08:40:00.590Z,2.30
2022-09-06T08:45:22.591Z,2.00
2022-09-06T08:47:53.670Z,1.93
2022-09-06T08:50:31.277Z,1.80
2022-09-06T08:53:16.628Z,1.80
2022-09-06T08:55:58.741Z,1.60
2022-09-06T08:59:03.751Z,1.80
2022-09-06T09:01:46.905Z,1.50
2022-09-06T09:04:22.530Z,1.57
2022-09-06T09:07:00.573Z,1.60
2022-09-06T09:09:36.549Z,1.50
2022-09-06T09:12:10.334Z,1.37
2022-09-06T09:14:51.079Z,1.43
2022-09-06T09:17:24.313Z,1.60
2022-09-06T09:19:56.062Z,1.60
2022-09-06T09:22:26.252Z,1.37
2022-09-06T09:24:58.943Z,1.40
2022-09-06T09:27:32.745Z,1.30
2022-09-06T09:33:02.728Z,1.67
2022-09-06T09:35:44.987Z,1.20
2022-09-06T09:38:23.669Z,1.40
2022-09-06T09:41:14.174Z,1.40
2022-09-06T09:43:47.173Z,1.20
2022-09-06T09:46:35.281Z,1.30
2022-09-06T09:49:17.471Z,1.30
2022-09-06T09:51:44.906Z,1.27
2022-09-06T09:54:15.043Z,1.20
2022-09-06T09:57:01.802Z,1.23
2022-09-06T09:59:50.692Z,1.33
2022-09-06T10:02:39.600Z,1.40
2022-09-06T10:05:20.032Z,1.60
2022-09-06T10:07:53.785Z,1.20
2022-09-06T10:10:47.015Z,1.50
2022-09-06T10:13:24.508Z,1.30
2022-09-06T10:15:58.326Z,1.63
2022-09-06T10:18:41.636Z,1.30
2022-09-06T10:21:18.106Z,1.47
2022-09-06T10:27:02.211Z,1.40
2022-09-06T10:29:39.315Z,1.30
2022-09-06T10:32:45.052Z,1.47
2022-09-06T10:35:33.272Z,1.30
2022-09-06T10:38:17.092Z,1.40
2022-09-06T10:41:06.734Z,1.80
2022-09-06T10:43:57.123Z,1.43
2022-09-06T10:46:37.531Z,1.40
2022-09-06T10:49:10.917Z,1.30
2022-09-06T10:51:59.819Z,1.50
2022-09-06T10:54:29.257Z,1.23
2022-09-06T10:57:06.355Z,1.10
2022-09-06T10:59:42.949Z,1.47
2022-09-06T11:02:19.649Z,1.40
2022-09-06T11:10:45.684Z,1.70
2022-09-06T11:13:27.181Z,1.30
2022-09-06T11:16:05.170Z,1.43
2022-09-06T11:18:55.913Z,1.40
2022-09-06T11:21:47.833Z,1.20
2022-09-06T11:24:54.931Z,1.40
2022-09-06T11:27:36.912Z,1.60
2022-09-06T11:33:22.569Z,1.50
2022-09-06T11:35:54.222Z,1.50
2022-09-06T11:38:31.593Z,1.33
2022-09-06T11:43:48.646Z,1.40
2022-09-06T11:46:46.278Z,1.60
2022-09-06T11:49:23.710Z,1.33
2022-09-06T11:51:52.805Z,1.50
2022-09-06T11:54:27.087Z,1.53
2022-09-06T11:57:28.895Z,1.27
2022-09-06T12:00:10.246Z,1.20
2022-09-06T12:02:40.999Z,1.20
2022-09-06T12:05:20.322Z,1.30
2022-09-06T12:08:12.809Z,1.30
2022-09-06T12:11:01.384Z,1.13
2022-09-06T12:13:56.524Z,1.10
2022-09-06T12:16:24.248Z,1.33
2022-09-06T12:18:58.190Z,1.30
2022-09-06T12:21:50.780Z,1.50
2022-09-06T12:24:42.040Z,1.30
2022-09-06T12:27:27.674Z,1.30
2022-09-06T12:30:09.318Z,1.30
2022-09-06T12:32:51.064Z,1.40
2022-09-06T12:38:21.770Z,1.30
2022-09-06T12:40:58.183Z,1.20
2022-09-06T12:43:30.865Z,1.20
2022-09-06T12:46:07.654Z,1.30
2022-09-06T12:48:46.966Z,1.10
2022-09-06T12:51:45.784Z,1.10
2022-09-06T12:54:27.099Z,1.20
2022-09-06T12:57:01.094Z,1.30
2022-09-06T12:59:45.564Z,1.30
2022-09-06T13:02:19.484Z,1.20
2022-09-06T13:04:59.277Z,1.30
2022-09-06T13:07:28.979Z,1.07
2022-09-06T13:10:01.854Z,0.80
2022-09-06T13:12:40.351Z,1.10
2022-09-06T13:15:26.618Z,1.03
2022-09-06T13:18:07.106Z,1.00
2022-09-06T13:20:34.864Z,1.10
2022-09-06T13:23:15.679Z,1.20
2022-09-06T13:25:55.364Z,1.10
2022-09-06T13:28:32.351Z,1.00
2022-09-06T13:31:13.639Z,1.10
2022-09-06T13:33:45.340Z,1.20
2022-09-06T13:36:23.904Z,0.97
2022-09-06T13:38:57.011Z,1.20
2022-09-06T13:41:41.220Z,0.97
2022-09-06T13:44:31.528Z,1.10
2022-09-06T13:47:04.218Z,0.93
2022-09-06T13:49:36.231Z,1.43
2022-09-06T13:52:08.679Z,1.30
2022-09-06T13:54:40.129Z,1.03
2022-09-06T13:57:12.835Z,1.20
2022-09-06T13:59:43.670Z,1.20
2022-09-06T14:02:18.419Z,1.20
2022-09-06T14:04:49.284Z,1.20
2022-09-06T14:07:17.729Z,1.30
2022-09-06T14:09:50.767Z,1.40
2022-09-06T14:12:24.484Z,1.40
2022-09-06T14:14:55.525Z,1.40
2022-09-06T14:17:29.993Z,1.30
2022-09-06T14:20:03.144Z,1.17
2022-09-06T14:22:33.903Z,1.30
2022-09-06T14:25:12.540Z,1.33
2022-09-06T14:27:44.818Z,1.40
2022-09-06T14:30:15.903Z,1.43
2022-09-06T14:32:48.103Z,1.40
2022-09-06T14:35:20.349Z,1.13
2022-09-06T14:37:50.451Z,1.13
2022-09-06T14:40:21.117Z,1.30
2022-09-06T14:42:51.983Z,1.40
2022-09-06T14:45:22.177Z,1.30
2022-09-06T14:47:59.677Z,1.20
2022-09-06T14:50:28.151Z,0.97
2022-09-06T14:52:57.211Z,1.30
2022-09-06T14:55:29.067Z,1.13
2022-09-06T14:58:00.620Z,1.33
2022-09-06T15:00:32.213Z,1.30
2022-09-06T15:03:04.032Z,1.20
2022-09-06T15:05:35.229Z,1.30
2022-09-06T15:08:07.203Z,1.17
2022-09-06T15:11:04.037Z,1.30
2022-09-06T15:13:41.490Z,1.30
2022-09-06T15:16:14.824Z,1.10
2022-09-06T15:18:43.299Z,1.30
2022-09-06T15:21:16.243Z,1.37
2022-09-06T15:23:48.479Z,1.50
2022-09-06T15:26:33.667Z,1.30
2022-09-06T15:29:06.785Z,1.70
2022-09-06T15:31:36.904Z,1.30
2022-09-06T15:34:08.994Z,1.50
2022-09-06T15:36:41.711Z,1.53
2022-09-06T15:39:10.536Z,1.90
2022-09-06T15:41:42.907Z,1.90
2022-09-06T15:44:17.976Z,2.30
2022-09-06T15:46:51.574Z,1.77
2022-09-06T15:49:24.367Z,1.70
2022-09-06T15:52:08.263Z,1.93
2022-09-06T15:54:57.699Z,1.77
2022-09-06T15:57:30.041Z,1.83
2022-09-06T16:00:03.377Z,1.90
2022-09-06T16:02:37.007Z,1.70
2022-09-06T16:05:08.935Z,1.70
2022-09-06T16:07:41.786Z,1.90
2022-09-06T16:10:12.868Z,1.60
2022-09-06T16:12:45.496Z,1.90
2022-09-06T16:15:19.726Z,1.40
2022-09-06T16:17:49.764Z,1.70
2022-09-06T16:20:19.407Z,1.83
2022-09-06T16:23:01.476Z,1.80
2022-09-06T16:25:32.559Z,2.10
2022-09-06T16:28:05.078Z,1.70
2022-09-06T16:30:46.529Z,2.00
2022-09-06T16:33:21.782Z,2.10
2022-09-06T16:35:52.771Z,2.00
2022-09-06T16:38:24.862Z,1.60
2022-09-06T16:40:56.235Z,2.27
2022-09-06T16:43:37.948Z,2.17
2022-09-06T16:46:08.200Z,2.10
2022-09-06T16:48:40.625Z,2.10
2022-09-06T16:51:17.153Z,2.37
2022-09-06T16:53:49.631Z,2.10
2022-09-06T16:56:21.653Z,1.93
2022-09-06T16:58:54.904Z,2.40
2022-09-06T17:01:24.201Z,1.80
2022-09-06T17:03:57.932Z,2.07
2022-09-06T17:06:26.664Z,2.20
2022-09-06T17:09:00.447Z,2.03
2022-09-06T17:11:35.195Z,2.10
2022-09-06T17:14:06.113Z,2.10
2022-09-06T17:16:58.506Z,2.10
2022-09-06T17:19:32.925Z,2.10
2022-09-06T17:22:03.525Z,1.90
2022-09-06T17:24:37.156Z,2.03
2022-09-06T17:27:06.358Z,2.07
2022-09-06T17:29:40.805Z,1.60
2022-09-06T17:32:10.979Z,2.07
2022-09-06T17:34:45.526Z,1.97
2022-09-06T17:37:18.992Z,1.97
2022-09-06T17:39:50.157Z,2.00
2022-09-06T17:42:25.347Z,1.90
2022-09-06T17:44:53.849Z,2.10
2022-09-06T17:47:24.284Z,2.07
2022-09-06T17:49:59.734Z,1.97
2022-09-06T17:52:35.164Z,1.90
2022-09-06T17:55:08.962Z,1.93
2022-09-06T17:57:50.885Z,2.00
2022-09-06T18:00:19.900Z,2.03
2022-09-06T18:02:51.714Z,1.83
2022-09-06T18:05:23.440Z,2.10
2022-09-06T18:07:58.733Z,1.70
2022-09-06T18:10:54.841Z,1.87
2022-09-06T18:13:24.283Z,1.93
2022-09-06T18:16:00.683Z,2.07
2022-09-06T18:18:28.444Z,1.90
2022-09-06T18:21:03.877Z,2.07
2022-09-06T18:23:36.348Z,1.90
2022-09-06T18:26:11.715Z,2.17
2022-09-06T18:28:42.975Z,1.63
2022-09-06T18:31:16.948Z,1.93
2022-09-06T18:33:45.898Z,1.70
2022-09-06T18:36:16.264Z,1.80
2022-09-06T18:38:52.867Z,1.90
2022-09-06T18:41:41.763Z,1.50
2022-09-06T18:44:10.478Z,1.30
2022-09-06T18:47:06.017Z,1.60
2022-09-06T18:49:43.281Z,1.90
2022-09-06T18:52:16.755Z,1.70
2022-09-06T18:54:45.779Z,1.90
2022-09-06T18:57:23.472Z,1.70
2022-09-06T18:59:55.735Z,1.93
2022-09-06T19:02:26.572Z,1.50
2022-09-06T19:05:01.215Z,1.70
2022-09-06T19:07:30.728Z,1.80
2022-09-06T19:10:03.771Z,1.90
2022-09-06T19:12:36.562Z,1.73
2022-09-06T19:15:06.402Z,1.60
2022-09-06T19:17:37.765Z,1.70
2022-09-06T19:20:18.710Z,1.70
2022-09-06T19:22:53.979Z,1.90
2022-09-06T19:25:23.475Z,1.70
2022-09-06T19:27:55.613Z,1.63
2022-09-06T19:30:25.453Z,1.50
2022-09-06T19:32:57.334Z,1.63
2022-09-06T19:35:29.695Z,1.77
2022-09-06T19:38:01.614Z,1.53
2022-09-06T19:40:38.205Z,1.93
2022-09-06T19:43:09.675Z,1.70
2022-09-06T19:45:38.411Z,1.80
2022-09-06T19:50:59.522Z,1.50
2022-09-06T19:53:34.316Z,1.77
2022-09-06T19:56:11.182Z,1.53
2022-09-06T19:58:45.267Z,1.90
2022-09-06T20:01:18.161Z,1.60
2022-09-06T20:03:50.744Z,9.73
2022-09-06T20:06:23.249Z,26.77
2022-09-06T20:09:12.985Z,29.97
2022-09-06T20:11:41.636Z,32.57
2022-09-06T20:14:12.177Z,31.13
2022-09-06T20:16:45.510Z,31.27
2022-09-06T20:22:02.572Z,27.30
2022-09-06T20:24:41.915Z,26.03
2022-09-06T20:27:11.786Z,24.10
2022-09-06T20:29:43.356Z,23.23
2022-09-06T20:32:12.063Z,21.87
2022-09-06T20:34:49.782Z,21.23
2022-09-06T20:37:18.213Z,19.73
2022-09-06T20:39:56.544Z,19.33
2022-09-06T20:42:27.290Z,19.53
2022-09-06T20:45:00.250Z,18.13
2022-09-06T20:47:31.333Z,17.47
2022-09-06T20:50:06.329Z,16.40
2022-09-06T20:52:38.601Z,16.10
2022-09-06T20:55:10.343Z,15.37
2022-09-06T20:57:40.239Z,14.23
2022-09-06T21:00:14.275Z,14.03
2022-09-06T21:02:46.022Z,13.57
2022-09-06T21:08:01.447Z,12.97
2022-09-06T21:10:31.914Z,11.57
2022-09-06T21:13:01.803Z,10.70
2022-09-06T21:15:32.247Z,11.07
2022-09-06T21:18:03.915Z,10.73
2022-09-06T21:20:36.230Z,9.53
2022-09-06T21:23:10.665Z,9.17
2022-09-06T21:25:41.327Z,9.03
2022-09-06T21:28:11.889Z,9.03
2022-09-06T21:30:43.657Z,8.13
2022-09-06T21:33:14.003Z,8.70
2022-09-06T21:35:48.862Z,7.67
2022-09-06T21:38:21.116Z,7.47
2022-09-06T21:40:52.849Z,6.77
2022-09-06T21:43:22.298Z,6.10
2022-09-06T21:45:54.858Z,7.20
2022-09-06T21:48:25.064Z,5.83
2022-09-06T21:50:59.931Z,5.37
2022-09-06T21:53:27.739Z,5.67
2022-09-06T21:56:12.402Z,5.27
2022-09-06T21:58:44.612Z,5.30
2022-09-06T22:01:35.941Z,5.50
2022-09-06T22:04:06.600Z,5.10
2022-09-06T22:06:41.825Z,4.53
2022-09-06T22:09:14.955Z,4.70
2022-09-06T22:11:48.568Z,4.90
2022-09-06T22:14:23.646Z,3.87
2022-09-06T22:16:54.649Z,4.10
2022-09-06T22:19:23.888Z,4.20
2022-09-06T22:21:56.466Z,3.70
2022-09-06T22:24:25.009Z,3.87
2022-09-06T22:27:01.692Z,4.10
2022-09-06T22:29:33.786Z,3.77
2022-09-06T22:32:05.459Z,3.57
2022-09-06T22:34:36.502Z,3.47
2022-09-06T22:37:04.785Z,4.00
2022-09-06T22:39:36.736Z,3.53
2022-09-06T22:42:11.555Z,3.47
2022-09-06T22:44:39.077Z,3.70
2022-09-06T22:47:15.054Z,3.57
2022-09-06T22:49:50.399Z,2.83
2022-09-06T22:52:20.201Z,3.57
2022-09-06T22:54:50.923Z,3.57
2022-09-06T22:57:20.183Z,3.10
2022-09-06T22:59:50.931Z,3.40
2022-09-06T23:02:30.933Z,2.97
2022-09-06T23:05:03.028Z,3.27
2022-09-06T23:07:33.862Z,3.37
2022-09-06T23:10:03.680Z,3.30
2022-09-06T23:12:34.660Z,2.93
2022-09-06T23:15:06.632Z,3.03
2022-09-06T23:17:36.539Z,3.27
2022-09-06T23:20:05.281Z,2.80
2022-09-06T23:22:33.698Z,2.63
2022-09-06T23:25:04.078Z,2.70
2022-09-06T23:27:36.877Z,2.40
2022-09-06T23:30:12.853Z,2.90
2022-09-06T23:32:44.418Z,2.57
2022-09-06T23:35:13.650Z,2.53
2022-09-06T23:40:32.163Z,2.70
2022-09-06T23:43:06.648Z,2.40
2022-09-06T23:45:36.015Z,2.63
2022-09-06T23:48:06.958Z,2.40
2022-09-06T23:53:22.560Z,2.30
2022-09-06T23:55:53.392Z,2.60
2022-09-06T23:58:22.954Z,2.43
